LEZG/ZAZ METAR and TAF weather

Enter ICAO airport designator
Station Type Date Time Source
LEZG METAR 2019/10/20 20:00 UTC NOAA

LEZG 202000Z 26010KT 9999 FEW050 12/10 Q1014


Station Type Date Time Source
LEZG Decoded METAR 2019/10/20 20:00 UTC NOAA

Zaragoza / Aeropuerto, Spain (LEZG) 41-40N 001-01W 258M
Oct 20, 2019 - 04:00 PM EDT / 2019.10.20 2000 UTC
Wind: from the W (260 degrees) at 12 MPH (10 KT):0
Visibility: greater than 7 mile(s):0
Sky conditions: mostly clear
Temperature: 53 F (12 C)
Dew Point: 50 F (10 C)
Relative Humidity: 87%
Pressure (altimeter): 29.94 in. Hg (1014 hPa)
ob: LEZG 202000Z 26010KT 9999 FEW050 12/10 Q1014
cycle: 20

Station Type Date Time Source
LEZG TAF 2019/10/20 18:27 UTC NOAA

TAF LEZG 201700Z 2018/2118 30010KT 9999 SCT050 TX18/2112Z TN07/2106Z PROB40
TEMPO 2018/2020 4000 SHRA FEW045TCU
BECMG 2111/2113 VRB03KT

Example: see airport list